createdAt,value
2024-01-20T00:00:55.497Z,100992.60
2024-01-20T00:04:04.140Z,100988.40
2024-01-20T00:07:12.582Z,100997.60
2024-01-20T00:10:40.416Z,100993.64
2024-01-20T00:14:08.302Z,100998.39
2024-01-20T00:17:32.649Z,101013.96
2024-01-20T00:20:41.375Z,101011.39
2024-01-20T00:24:08.898Z,101026.34
2024-01-20T00:27:36.653Z,101035.42
2024-01-20T00:31:04.338Z,101030.68
2024-01-20T00:34:42.991Z,101037.98
2024-01-20T00:37:59.968Z,101037.35
2024-01-20T00:41:27.865Z,101052.48
2024-01-20T00:44:35.722Z,101050.55
2024-01-20T00:47:44.524Z,101053.88
2024-01-20T00:51:00.197Z,101062.24
2024-01-20T00:54:28.074Z,101060.25
2024-01-20T00:57:55.939Z,101069.03
2024-01-20T01:01:04.343Z,101073.67
2024-01-20T01:04:16.161Z,101075.68
2024-01-20T01:07:43.722Z,101084.14
2024-01-20T01:11:11.430Z,101087.00
2024-01-20T01:14:21.368Z,101086.27
2024-01-20T01:17:49.175Z,101079.59
2024-01-20T01:20:57.248Z,101085.33
2024-01-20T01:24:24.940Z,101092.47
2024-01-20T01:27:52.636Z,101101.04
2024-01-20T01:31:20.563Z,101095.96
2024-01-20T01:34:48.853Z,101100.57
2024-01-20T01:38:16.623Z,101112.23
2024-01-20T01:41:28.202Z,101108.48
2024-01-20T01:44:56.123Z,101106.07
2024-01-20T01:48:04.217Z,101116.74
2024-01-20T01:51:31.827Z,101112.43
2024-01-20T01:54:59.680Z,101106.49
2024-01-20T01:58:27.475Z,101104.02
2024-01-20T02:01:55.358Z,101108.48
2024-01-20T02:05:11.250Z,101114.98
2024-01-20T02:08:20.128Z,101124.74
2024-01-20T02:11:48.009Z,101131.43
2024-01-20T02:14:55.605Z,101134.57
2024-01-20T02:18:04.192Z,101136.91
2024-01-20T02:21:32.016Z,101145.98
2024-01-20T02:24:59.924Z,101147.38
2024-01-20T02:28:27.464Z,101143.10
2024-01-20T02:31:35.593Z,101150.90
2024-01-20T02:34:24.346Z,101160.64
2024-01-20T02:37:52.189Z,101157.85
2024-01-20T02:41:19.780Z,101173.75
2024-01-20T02:44:47.592Z,101184.05
2024-01-20T02:48:17.166Z,101191.87
2024-01-20T02:51:23.001Z,101198.39
2024-01-20T02:54:50.998Z,101201.20
2024-01-20T02:58:18.730Z,101203.37
2024-01-20T03:01:46.733Z,101214.30
2024-01-20T03:05:14.562Z,101217.27
2024-01-20T03:08:42.246Z,101219.30
2024-01-20T03:12:10.024Z,101221.61
2024-01-20T03:15:37.907Z,101230.30
2024-01-20T03:19:05.638Z,101232.13
2024-01-20T03:22:33.311Z,101239.21
2024-01-20T03:26:01.048Z,101242.61
2024-01-20T03:29:28.764Z,101250.95
2024-01-20T03:32:44.348Z,101250.79
2024-01-20T03:36:12.073Z,101257.48
2024-01-20T03:39:39.833Z,101263.88
2024-01-20T03:43:07.527Z,101262.30
2024-01-20T03:46:35.208Z,101268.02
2024-01-20T03:50:02.964Z,101274.04
2024-01-20T03:53:30.515Z,101277.91
2024-01-20T03:56:58.309Z,101278.23
2024-01-20T04:00:26.048Z,101281.23
2024-01-20T04:03:53.874Z,101288.02
2024-01-20T04:07:05.438Z,101285.13
2024-01-20T04:10:33.092Z,101278.27
2024-01-20T04:13:56.679Z,101282.00
2024-01-20T04:17:05.149Z,101285.00
2024-01-20T04:20:33.000Z,101290.30
2024-01-20T04:24:00.844Z,101296.66
2024-01-20T04:26:50.171Z,101299.34
2024-01-20T04:30:18.204Z,101295.69
2024-01-20T04:33:45.921Z,101304.21
2024-01-20T04:37:13.421Z,101313.30
2024-01-20T04:40:40.963Z,101317.23
2024-01-20T04:44:08.872Z,101314.23
2024-01-20T04:47:36.436Z,101310.27
2024-01-20T04:51:04.537Z,101309.38
2024-01-20T04:54:33.052Z,101312.42
2024-01-20T04:58:00.854Z,101319.84
2024-01-20T05:01:28.635Z,101334.98
2024-01-20T05:04:56.240Z,101338.92
2024-01-20T05:08:24.206Z,101351.83
2024-01-20T05:11:52.030Z,101353.42
2024-01-20T05:15:19.941Z,101362.48
2024-01-20T05:18:47.751Z,101367.48
2024-01-20T05:22:16.353Z,101376.00
2024-01-20T05:25:26.406Z,101380.85
2024-01-20T05:28:54.142Z,101382.30
2024-01-20T05:32:21.848Z,101379.94
2024-01-20T05:35:49.670Z,101384.73
2024-01-20T05:39:17.402Z,101392.75
2024-01-20T05:42:45.087Z,101392.64
2024-01-20T05:46:12.722Z,101399.23
2024-01-20T05:49:21.698Z,101401.73
2024-01-20T05:52:49.320Z,101405.35
2024-01-20T05:56:17.781Z,101415.61
2024-01-20T05:59:44.782Z,101417.41
2024-01-20T06:02:33.272Z,101420.45
2024-01-20T06:06:01.010Z,101429.07
2024-01-20T06:09:28.881Z,101433.11
2024-01-20T06:12:56.581Z,101443.05
2024-01-20T06:16:25.496Z,101441.84
2024-01-20T06:19:35.314Z,101449.41
2024-01-20T06:23:03.827Z,101453.11
2024-01-20T06:26:31.676Z,101454.90
2024-01-20T06:29:39.389Z,101454.52
2024-01-20T06:33:07.281Z,101455.09
2024-01-20T06:36:34.944Z,101462.54
2024-01-20T06:40:02.745Z,101475.60
2024-01-20T06:43:14.470Z,101484.95
2024-01-20T06:46:22.592Z,101492.91
2024-01-20T06:49:50.283Z,101490.80
2024-01-20T06:53:18.165Z,101493.79
2024-01-20T06:56:46.105Z,101497.31
2024-01-20T07:00:14.071Z,101500.10
2024-01-20T07:03:42.105Z,101509.64
2024-01-20T07:07:09.797Z,101518.05
2024-01-20T07:10:37.585Z,101519.42
2024-01-20T07:14:05.512Z,101529.08
2024-01-20T07:17:33.308Z,101536.37
2024-01-20T07:21:00.974Z,101539.65
2024-01-20T07:24:28.963Z,101548.71
2024-01-20T07:27:38.775Z,101553.60
2024-01-20T07:31:06.188Z,101558.25
2024-01-20T07:34:33.881Z,101562.92
2024-01-20T07:38:01.309Z,101566.30
2024-01-20T07:41:29.415Z,101574.84
2024-01-20T07:44:37.622Z,101582.33
2024-01-20T07:48:05.987Z,101586.41
2024-01-20T07:51:33.761Z,101586.94
2024-01-20T07:55:01.291Z,101588.23
2024-01-20T07:58:29.064Z,101590.24
2024-01-20T08:01:56.803Z,101594.85
2024-01-20T08:04:56.401Z,101598.20
2024-01-20T08:08:20.890Z,101598.21
2024-01-20T08:11:48.522Z,101603.15
2024-01-20T08:15:16.232Z,101609.23
2024-01-20T08:18:06.427Z,101612.63
2024-01-20T08:21:33.954Z,101617.14
2024-01-20T08:25:01.626Z,101624.09
2024-01-20T08:28:03.818Z,101623.10
2024-01-20T08:31:21.532Z,101624.16
2024-01-20T08:34:49.147Z,101629.30
2024-01-20T08:38:16.880Z,101629.33
2024-01-20T08:41:44.471Z,101628.58
2024-01-20T08:44:53.993Z,101629.94
2024-01-20T08:48:09.476Z,101636.02
2024-01-20T08:51:37.030Z,101636.15
2024-01-20T08:55:04.717Z,101638.64
2024-01-20T08:58:32.347Z,101641.88
2024-01-20T09:02:00.042Z,101642.95
2024-01-20T09:05:07.806Z,101648.30
2024-01-20T09:08:15.653Z,101641.70
2024-01-20T09:11:43.420Z,101637.47
2024-01-20T09:15:11.020Z,101635.37
2024-01-20T09:18:38.773Z,101637.50
2024-01-20T09:22:06.304Z,101629.96
2024-01-20T09:25:34.119Z,101630.84
2024-01-20T09:29:01.806Z,101635.23
2024-01-20T09:32:09.908Z,101626.89
2024-01-20T09:35:18.127Z,101624.70
2024-01-20T09:38:45.870Z,101623.25
2024-01-20T09:42:13.672Z,101617.31
2024-01-20T09:45:21.609Z,101613.15
2024-01-20T09:48:49.332Z,101611.80
2024-01-20T09:52:16.931Z,101610.63
2024-01-20T09:55:44.800Z,101604.70
2024-01-20T09:59:12.575Z,101605.51
2024-01-20T10:02:40.409Z,101609.42
2024-01-20T10:06:08.690Z,101610.92
2024-01-20T10:09:36.506Z,101606.71
2024-01-20T10:13:04.370Z,101613.39
2024-01-20T10:16:32.070Z,101614.48
2024-01-20T10:19:59.782Z,101607.05
2024-01-20T10:23:27.849Z,101617.02
2024-01-20T10:26:55.679Z,101619.49
2024-01-20T10:30:03.905Z,101626.58
2024-01-20T10:33:31.721Z,101624.91
2024-01-20T10:36:59.308Z,101627.94
2024-01-20T10:40:27.020Z,101622.82
2024-01-20T10:43:35.499Z,101622.84
2024-01-20T10:47:03.160Z,101623.42
2024-01-20T10:50:10.330Z,101622.41
2024-01-20T10:53:38.217Z,101622.11
2024-01-20T10:56:46.578Z,101628.02
2024-01-20T11:00:14.249Z,101629.48
2024-01-20T11:03:41.909Z,101634.31
2024-01-20T11:07:09.715Z,101639.09
2024-01-20T11:10:17.524Z,101643.79
2024-01-20T11:13:45.299Z,101642.82
2024-01-20T11:17:12.966Z,101648.31
2024-01-20T11:20:40.685Z,101647.53
2024-01-20T11:24:08.497Z,101643.64
2024-01-20T11:27:36.158Z,101640.31
2024-01-20T11:31:03.919Z,101641.33
2024-01-20T11:34:31.785Z,101640.11
2024-01-20T11:37:39.941Z,101634.61
2024-01-20T11:40:48.394Z,101639.76
2024-01-20T11:43:44.434Z,101637.23
2024-01-20T11:47:12.332Z,101635.35
2024-01-20T11:50:23.770Z,101634.65
2024-01-20T11:53:51.627Z,101636.44
2024-01-20T11:57:19.297Z,101641.55
2024-01-20T12:00:47.044Z,101642.08
2024-01-20T12:04:15.332Z,101643.02
2024-01-20T12:07:43.062Z,101646.33
2024-01-20T12:11:10.706Z,101647.39
2024-01-20T12:14:38.542Z,101639.07
2024-01-20T12:18:06.406Z,101633.88
2024-01-20T12:21:16.241Z,101637.27
2024-01-20T12:24:24.868Z,101636.16
2024-01-20T12:27:40.354Z,101640.84
2024-01-20T12:30:52.460Z,101645.02
2024-01-20T12:34:20.224Z,101645.67
2024-01-20T12:37:48.223Z,101649.66
2024-01-20T12:40:59.741Z,101655.95
2024-01-20T12:44:08.175Z,101655.34
2024-01-20T12:47:36.147Z,101659.60
2024-01-20T12:51:03.819Z,101669.44
2024-01-20T12:54:31.680Z,101667.16
2024-01-20T12:57:59.285Z,101675.94
2024-01-20T13:01:28.958Z,101675.85
2024-01-20T13:04:36.145Z,101678.28
2024-01-20T13:07:44.420Z,101679.81
2024-01-20T13:11:12.232Z,101685.34
2024-01-20T13:14:39.915Z,101682.52
2024-01-20T13:18:07.740Z,101686.55
2024-01-20T13:21:35.492Z,101689.14
2024-01-20T13:25:03.082Z,101685.69
2024-01-20T13:28:30.775Z,101694.23
2024-01-20T13:31:58.616Z,101695.55
2024-01-20T13:35:26.312Z,101703.85
2024-01-20T13:38:53.972Z,101704.14
2024-01-20T13:42:21.773Z,101712.67
2024-01-20T13:45:49.516Z,101712.60
2024-01-20T13:49:17.249Z,101718.42
2024-01-20T13:52:24.994Z,101728.88
2024-01-20T13:55:34.070Z,101734.60
2024-01-20T13:59:01.746Z,101732.52
2024-01-20T14:02:29.671Z,101734.38
2024-01-20T14:05:57.633Z,101744.58
2024-01-20T14:09:25.320Z,101747.40
2024-01-20T14:12:48.981Z,101749.36
2024-01-20T14:16:00.432Z,101751.86
2024-01-20T14:19:28.179Z,101751.02
2024-01-20T14:22:55.727Z,101749.16
2024-01-20T14:26:23.824Z,101751.08
2024-01-20T14:29:51.849Z,101759.73
2024-01-20T14:33:19.708Z,101764.02
2024-01-20T14:36:47.361Z,101767.41
2024-01-20T14:40:15.252Z,101771.09
2024-01-20T14:43:43.040Z,101774.29
2024-01-20T14:47:10.794Z,101773.98
2024-01-20T14:50:38.499Z,101764.90
2024-01-20T14:53:47.848Z,101770.39
2024-01-20T14:56:57.311Z,101775.98
2024-01-20T15:00:25.253Z,101779.04
2024-01-20T15:03:40.760Z,101778.81
2024-01-20T15:07:08.509Z,101787.39
2024-01-20T15:10:36.073Z,101793.48
2024-01-20T15:14:03.731Z,101799.73
2024-01-20T15:17:19.607Z,101801.19
2024-01-20T15:20:29.855Z,101803.59
2024-01-20T15:23:38.637Z,101809.60
2024-01-20T15:26:47.436Z,101812.49
2024-01-20T15:30:15.356Z,101823.73
2024-01-20T15:33:43.399Z,101833.75
2024-01-20T15:36:52.072Z,101840.92
2024-01-20T15:40:19.946Z,101842.30
2024-01-20T15:43:47.495Z,101845.80
2024-01-20T15:47:15.232Z,101851.93
2024-01-20T15:50:43.789Z,101858.91
2024-01-20T15:53:52.136Z,101865.55
2024-01-20T15:57:20.052Z,101871.83
2024-01-20T16:00:47.947Z,101874.70
2024-01-20T16:04:15.766Z,101874.67
2024-01-20T16:07:23.768Z,101874.34
2024-01-20T16:10:51.577Z,101875.45
2024-01-20T16:14:19.387Z,101879.02
2024-01-20T16:17:08.390Z,101881.02
2024-01-20T16:20:19.861Z,101882.66
2024-01-20T16:23:47.393Z,101887.98
2024-01-20T16:26:56.498Z,101889.79
2024-01-20T16:30:01.012Z,101894.44
2024-01-20T16:33:28.944Z,101895.52
2024-01-20T16:36:53.120Z,101900.48
2024-01-20T16:40:21.360Z,101900.13
2024-01-20T16:43:28.131Z,101904.02
2024-01-20T16:46:55.773Z,101904.04
2024-01-20T16:50:23.564Z,101903.55
2024-01-20T16:53:51.384Z,101910.11
2024-01-20T16:57:06.992Z,101914.20
2024-01-20T17:00:19.016Z,101911.94
2024-01-20T17:03:47.376Z,101914.77
2024-01-20T17:06:54.956Z,101917.98
2024-01-20T17:10:10.741Z,101922.77
2024-01-20T17:13:19.916Z,101924.39
2024-01-20T17:16:43.002Z,101928.86
2024-01-20T17:20:10.692Z,101933.80
2024-01-20T17:23:00.614Z,101934.69
2024-01-20T17:26:12.129Z,101935.91
2024-01-20T17:29:19.909Z,101937.88
2024-01-20T17:32:08.929Z,101937.21
2024-01-20T17:35:36.688Z,101932.64
2024-01-20T17:39:04.615Z,101932.64
2024-01-20T17:42:32.202Z,101935.11
2024-01-20T17:46:00.061Z,101936.55
2024-01-20T17:49:28.020Z,101947.70
2024-01-20T17:52:36.054Z,101951.41
2024-01-20T17:56:03.888Z,101956.20
2024-01-20T17:59:11.796Z,101961.55
2024-01-20T18:02:39.669Z,101967.73
2024-01-20T18:06:07.472Z,101973.05
2024-01-20T18:09:35.189Z,101976.04
2024-01-20T18:13:02.978Z,101983.13
2024-01-20T18:16:30.653Z,101988.10
2024-01-20T18:19:58.284Z,101984.40
2024-01-20T18:23:26.125Z,101978.91
2024-01-20T18:26:53.914Z,101982.80
2024-01-20T18:30:02.752Z,101985.12
2024-01-20T18:33:30.483Z,101984.42
2024-01-20T18:36:58.218Z,101989.02
2024-01-20T18:40:25.967Z,101993.45
2024-01-20T18:43:53.759Z,102000.36
2024-01-20T18:47:02.236Z,101999.67
2024-01-20T18:50:30.289Z,102001.64
2024-01-20T18:53:58.661Z,102005.23
2024-01-20T18:57:27.017Z,102006.86
2024-01-20T19:00:54.945Z,102011.11
2024-01-20T19:04:22.513Z,102013.64
2024-01-20T19:07:50.460Z,102015.80
2024-01-20T19:11:18.360Z,102015.85
2024-01-20T19:14:46.049Z,102020.99
2024-01-20T19:18:14.125Z,102023.83
2024-01-20T19:21:41.875Z,102024.20
2024-01-20T19:25:09.865Z,102027.02
2024-01-20T19:28:37.597Z,102030.05
2024-01-20T19:32:05.522Z,102034.30
2024-01-20T19:35:33.321Z,102038.73
2024-01-20T19:39:02.171Z,102044.58
2024-01-20T19:42:28.884Z,102040.46
2024-01-20T19:44:57.959Z,102040.44
2024-01-20T19:48:28.412Z,102040.27
2024-01-20T19:51:38.229Z,102044.87
2024-01-20T19:54:47.153Z,102048.61
2024-01-20T19:58:14.961Z,102054.96
2024-01-20T20:01:42.653Z,102057.12
2024-01-20T20:04:50.625Z,102058.91
2024-01-20T20:08:18.319Z,102057.52
2024-01-20T20:11:29.893Z,102058.79
2024-01-20T20:14:38.149Z,102059.68
2024-01-20T20:17:50.276Z,102061.10
2024-01-20T20:21:17.844Z,102055.27
2024-01-20T20:24:46.286Z,102057.58
2024-01-20T20:28:10.920Z,102063.08
2024-01-20T20:31:38.879Z,102067.86
2024-01-20T20:35:06.602Z,102071.40
2024-01-20T20:38:34.198Z,102067.70
2024-01-20T20:42:01.727Z,102069.81
2024-01-20T20:45:29.547Z,102081.30
2024-01-20T20:48:57.520Z,102079.34
2024-01-20T20:52:21.765Z,102079.54
2024-01-20T20:55:49.674Z,102080.23
2024-01-20T20:59:05.174Z,102085.02
2024-01-20T21:02:33.144Z,102089.60
2024-01-20T21:06:00.984Z,102091.02
2024-01-20T21:09:10.723Z,102090.65
2024-01-20T21:12:14.755Z,102090.66
2024-01-20T21:15:42.607Z,102094.01
2024-01-20T21:18:50.545Z,102097.90
2024-01-20T21:21:46.545Z,102094.88
2024-01-20T21:24:58.018Z,102092.07
2024-01-20T21:28:25.978Z,102093.48
2024-01-20T21:31:34.456Z,102088.73
2024-01-20T21:34:43.002Z,102091.91
2024-01-20T21:38:10.998Z,102091.02
2024-01-20T21:41:39.203Z,102091.71
2024-01-20T21:45:07.149Z,102089.25
2024-01-20T21:48:19.353Z,102091.73
2024-01-20T21:51:34.627Z,102099.30
2024-01-20T21:55:02.434Z,102108.48
2024-01-20T21:58:10.208Z,102116.95
2024-01-20T22:01:38.203Z,102121.90
2024-01-20T22:05:06.238Z,102122.43
2024-01-20T22:08:22.046Z,102126.31
2024-01-20T22:11:50.195Z,102122.95
2024-01-20T22:15:18.078Z,102117.83
2024-01-20T22:18:45.791Z,102119.41
2024-01-20T22:22:14.481Z,102119.05
2024-01-20T22:25:22.274Z,102122.76
2024-01-20T22:28:50.047Z,102128.94
2024-01-20T22:32:17.867Z,102127.54
2024-01-20T22:35:29.379Z,102124.88
2024-01-20T22:38:38.013Z,102125.25
2024-01-20T22:42:05.847Z,102120.83
2024-01-20T22:45:33.651Z,102118.89
2024-01-20T22:49:01.501Z,102119.95
2024-01-20T22:52:05.738Z,102126.85
2024-01-20T22:55:33.583Z,102131.27
2024-01-20T22:59:01.341Z,102129.67
2024-01-20T23:02:29.208Z,102131.61
2024-01-20T23:05:57.009Z,102124.36
2024-01-20T23:09:05.133Z,102125.96
2024-01-20T23:12:32.795Z,102129.84
2024-01-20T23:16:00.624Z,102130.03
2024-01-20T23:19:29.252Z,102125.61
2024-01-20T23:22:37.574Z,102130.20
2024-01-20T23:25:46.587Z,102128.61
2024-01-20T23:29:02.431Z,102132.67
2024-01-20T23:32:31.638Z,102132.31
2024-01-20T23:35:40.290Z,102130.55
2024-01-20T23:39:08.033Z,102133.92
2024-01-20T23:42:35.790Z,102136.55
2024-01-20T23:46:03.864Z,102141.33
2024-01-20T23:49:31.975Z,102137.95
2024-01-20T23:52:59.638Z,102139.54
2024-01-20T23:56:27.223Z,102138.30
2024-01-20T23:59:34.994Z,102139.34
